Time;durP1;ratioP1;P1;durP2;ratioP2;P2;SDS_P1;SDS_P2;PMS_P1;PMS_P2;Temp;Humidity;BMP_temperature;BMP_pressure;BME280_temperature;BME280_humidity;BME280_pressure;Samples;Min_cycle;Max_cycle;Signal;HPM_P1;HPM_P2
2022/01/13 00:02:06;;;;;;;24.07;11.63;;;;;;;-0.18;100.00;100716.41;4999251;28;20053;-59
2022/01/13 00:04:32;;;;;;;20.40;11.00;;;;;;;-0.25;100.00;100705.09;4994915;28;20559;-56
2022/01/13 00:06:57;;;;;;;18.60;10.13;;;;;;;-0.30;100.00;100719.09;4998936;28;20038;-59
2022/01/13 00:09:23;;;;;;;22.47;11.93;;;;;;;-0.30;100.00;100723.28;4998702;28;20038;-55
2022/01/13 00:11:50;;;;;;;21.77;12.07;;;;;;;-0.36;100.00;100721.25;4998893;28;20116;-58
2022/01/13 00:17:06;;;;;;;18.97;9.67;;;;;;;-0.40;100.00;100714.31;4996730;28;20053;-58
2022/01/13 00:19:46;;;;;;;21.87;11.43;;;;;;;-0.53;100.00;100710.19;4998305;28;20510;-57
2022/01/13 00:25:03;;;;;;;19.30;10.03;;;;;;;-0.69;100.00;100709.22;4953506;28;20088;-57
2022/01/13 00:27:30;;;;;;;21.87;11.40;;;;;;;-0.70;100.00;100689.84;4954828;28;20039;-59
2022/01/13 00:29:59;;;;;;;19.13;11.13;;;;;;;-0.69;100.00;100696.63;4956696;28;20042;-58
2022/01/13 00:32:28;;;;;;;21.10;11.60;;;;;;;-0.75;100.00;100693.75;4967296;28;20066;-56
2022/01/13 00:34:53;;;;;;;20.00;10.67;;;;;;;-0.74;100.00;100708.94;4969174;28;20207;-59
2022/01/13 00:37:19;;;;;;;18.53;9.93;;;;;;;-0.71;100.00;100709.13;4971452;28;20047;-56
2022/01/13 00:39:45;;;;;;;22.93;11.07;;;;;;;-0.76;100.00;100704.59;4972841;28;20409;-59
2022/01/13 00:42:10;;;;;;;16.37;9.33;;;;;;;-0.71;100.00;100710.75;4973230;28;20054;-58
2022/01/13 00:44:36;;;;;;;20.97;11.23;;;;;;;-0.68;100.00;100710.97;4969558;28;20341;-59
2022/01/13 00:47:05;;;;;;;20.50;10.33;;;;;;;-0.72;100.00;100698.97;4974435;28;20592;-56
2022/01/13 00:49:30;;;;;;;16.73;9.37;;;;;;;-0.72;100.00;100691.44;4971073;28;20046;-59
2022/01/13 00:51:56;;;;;;;23.67;11.77;;;;;;;-0.73;100.00;100694.72;4971508;28;20037;-54
2022/01/13 00:54:22;;;;;;;19.10;10.33;;;;;;;-0.78;100.00;100689.41;4968916;28;20046;-54
2022/01/13 00:56:48;;;;;;;20.40;10.73;;;;;;;-0.84;100.00;100699.09;4971624;28;20038;-58
2022/01/13 00:59:15;;;;;;;22.13;11.97;;;;;;;-0.93;100.00;100696.91;4972823;28;20277;-58
2022/01/13 01:01:46;;;;;;;21.80;10.93;;;;;;;-0.85;100.00;100702.41;4983574;28;20562;-55
2022/01/13 01:04:12;;;;;;;17.97;10.90;;;;;;;-0.81;100.00;100706.00;5006855;28;20026;-59
2022/01/13 01:06:38;;;;;;;27.30;10.40;;;;;;;-0.78;100.00;100699.47;5006446;28;20496;-56
2022/01/13 01:09:04;;;;;;;17.83;11.07;;;;;;;-0.79;100.00;100699.38;5007583;28;20048;-58
2022/01/13 01:11:31;;;;;;;18.77;9.83;;;;;;;-0.71;100.00;100693.13;5009053;28;20034;-54
2022/01/13 01:13:58;;;;;;;19.20;10.23;;;;;;;-0.70;100.00;100710.88;5008494;28;20377;-58
2022/01/13 01:16:26;;;;;;;17.53;9.33;;;;;;;-0.68;100.00;100708.44;5007915;28;20467;-55
2022/01/13 01:19:02;;;;;;;16.80;8.67;;;;;;;-0.62;100.00;100708.78;5010367;28;20030;-58
2022/01/13 01:29:15;;;;;;;20.53;9.57;;;;;;;-0.75;100.00;100688.69;5011142;28;20117;-55
2022/01/13 01:31:47;;;;;;;19.00;9.77;;;;;;;-0.76;100.00;100689.47;5041722;28;20032;-58
2022/01/13 01:34:36;;;;;;;16.20;9.13;;;;;;;-0.85;100.00;100682.28;5013522;28;20420;-57
2022/01/13 01:37:06;;;;;;;18.73;9.07;;;;;;;-0.84;100.00;100668.88;5010236;28;20087;-59
2022/01/13 01:39:31;;;;;;;18.57;8.63;;;;;;;-0.79;100.00;100667.53;5009561;28;20029;-59
2022/01/13 01:41:57;;;;;;;14.57;7.57;;;;;;;-0.87;100.00;100675.41;5008497;28;20084;-58
2022/01/13 01:44:29;;;;;;;18.03;8.80;;;;;;;-0.81;100.00;100666.56;5013292;28;20476;-58
2022/01/13 01:46:54;;;;;;;14.77;7.30;;;;;;;-0.85;100.00;100687.31;5010829;28;20049;-57
2022/01/13 01:49:23;;;;;;;15.63;8.57;;;;;;;-0.93;100.00;100670.84;5010894;28;20101;-55
2022/01/13 01:51:52;;;;;;;13.43;7.37;;;;;;;-0.99;100.00;100671.38;5009440;28;20243;-57
2022/01/13 01:54:18;;;;;;;16.73;7.57;;;;;;;-1.03;100.00;100664.44;5011607;28;20033;-58
2022/01/13 01:56:44;;;;;;;15.57;9.13;;;;;;;-1.07;100.00;100657.50;5008457;28;20026;-58
2022/01/13 01:59:15;;;;;;;18.13;9.47;;;;;;;-1.01;100.00;100662.88;5009506;28;20396;-57
2022/01/13 02:01:42;;;;;;;17.23;9.03;;;;;;;-0.95;100.00;100657.34;5012144;28;20029;-58
2022/01/13 02:04:08;;;;;;;12.27;6.37;;;;;;;-0.92;100.00;100643.28;5012149;28;20083;-58
2022/01/13 02:06:35;;;;;;;16.07;8.80;;;;;;;-0.87;100.00;100632.59;5011842;28;20030;-58
2022/01/13 02:09:02;;;;;;;17.30;10.53;;;;;;;-0.86;100.00;100631.84;5009149;28;20079;-58
2022/01/13 02:11:30;;;;;;;18.20;9.20;;;;;;;-0.80;100.00;100629.66;5011353;28;20075;-55
2022/01/13 02:13:59;;;;;;;15.87;8.43;;;;;;;-0.72;99.69;100624.28;5011424;28;20327;-57
2022/01/13 02:18:59;;;;;;;16.47;7.33;;;;;;;-0.66;98.43;100637.22;5008065;28;20729;-60
2022/01/13 02:21:26;;;;;;;18.10;9.07;;;;;;;-0.66;98.45;100634.72;5010044;28;20276;-60
2022/01/13 02:23:52;;;;;;;15.20;8.37;;;;;;;-0.64;98.35;100634.81;5021638;28;20030;-60
2022/01/13 02:26:18;;;;;;;13.33;8.13;;;;;;;-0.61;97.82;100638.38;5009970;28;20054;-60
2022/01/13 02:28:44;;;;;;;14.33;8.83;;;;;;;-0.63;97.40;100639.91;5009617;28;20542;-60
2022/01/13 02:31:11;;;;;;;15.53;9.43;;;;;;;-0.63;98.27;100650.00;5011669;28;20056;-60
2022/01/13 02:33:37;;;;;;;19.57;10.97;;;;;;;-0.62;98.45;100640.78;5009094;28;20058;-60
2022/01/13 02:36:04;;;;;;;17.87;8.60;;;;;;;-0.59;98.37;100648.50;5005604;28;20029;-56
2022/01/13 02:38:29;;;;;;;16.50;8.30;;;;;;;-0.57;97.58;100652.00;5009270;28;20040;-58
2022/01/13 02:40:56;;;;;;;17.90;9.67;;;;;;;-0.55;97.04;100655.47;5011053;28;20104;-58
2022/01/13 02:43:24;;;;;;;16.83;8.77;;;;;;;-0.51;96.10;100654.88;5011210;28;20034;-59
2022/01/13 02:46:18;;;;;;;15.43;7.47;;;;;;;-0.49;94.89;100655.81;5007416;28;20034;-57
2022/01/13 02:48:45;;;;;;;13.90;8.17;;;;;;;-0.39;93.13;100664.78;5011485;28;20033;-58
2022/01/13 02:51:10;;;;;;;16.33;8.00;;;;;;;-0.36;91.15;100672.50;5012002;28;20061;-56
2022/01/13 02:53:37;;;;;;;14.60;8.40;;;;;;;-0.35;89.94;100667.56;5011269;28;20065;-59
2022/01/13 02:56:05;;;;;;;13.97;7.83;;;;;;;-0.35;89.55;100670.09;5010829;28;20033;-58
2022/01/13 02:58:35;;;;;;;15.43;7.03;;;;;;;-0.29;88.18;100677.97;5009395;28;20120;-58
2022/01/13 03:01:01;;;;;;;13.67;8.27;;;;;;;-0.23;87.37;100679.97;5010435;28;20026;-56
2022/01/13 03:03:29;;;;;;;15.10;7.03;;;;;;;-0.26;85.58;100650.44;5009494;28;20593;-57
2022/01/13 03:05:56;;;;;;;11.00;7.00;;;;;;;-0.19;83.42;100665.13;5008231;28;20056;-59
2022/01/13 03:08:21;;;;;;;13.60;7.30;;;;;;;-0.12;82.45;100676.41;5013226;28;20029;-58
2022/01/13 03:10:47;;;;;;;11.47;6.83;;;;;;;-0.17;81.35;100681.19;5011599;28;20036;-59
2022/01/13 03:13:12;;;;;;;12.13;6.17;;;;;;;-0.23;80.97;100670.78;5008421;28;20528;-58
2022/01/13 03:15:38;;;;;;;9.90;6.23;;;;;;;-0.19;80.06;100676.84;5007051;28;20029;-59
2022/01/13 03:18:03;;;;;;;15.53;7.40;;;;;;;-0.19;79.42;100695.38;5008067;28;20454;-59
2022/01/13 03:20:29;;;;;;;11.80;6.77;;;;;;;-0.20;79.10;100691.09;5011621;28;20045;-57
2022/01/13 03:22:55;;;;;;;11.80;6.53;;;;;;;-0.16;77.96;100697.19;5008844;28;20025;-59
2022/01/13 03:25:22;;;;;;;13.97;7.60;;;;;;;-0.28;77.95;100702.41;5008706;28;20037;-59
2022/01/13 03:27:55;;;;;;;11.00;5.93;;;;;;;-0.21;75.93;100684.31;5009754;28;20586;-59
2022/01/13 03:30:20;;;;;;;11.10;6.87;;;;;;;-0.19;75.07;100664.25;5011316;28;20030;-59
2022/01/13 03:32:46;;;;;;;11.30;6.00;;;;;;;-0.16;74.07;100651.81;5006811;28;20034;-59
2022/01/13 03:35:12;;;;;;;12.57;7.83;;;;;;;-0.18;72.87;100649.22;5008080;28;20022;-58
2022/01/13 03:37:37;;;;;;;9.90;6.63;;;;;;;-0.16;73.00;100667.81;5005293;28;20088;-58
2022/01/13 03:40:04;;;;;;;11.70;6.90;;;;;;;-0.22;73.21;100657.41;5008785;28;20034;-58
2022/01/13 03:42:29;;;;;;;10.83;6.13;;;;;;;-0.21;73.54;100664.16;5008229;28;20052;-59
2022/01/13 03:44:55;;;;;;;13.53;7.57;;;;;;;-0.25;73.40;100669.81;5008974;28;20543;-59
2022/01/13 03:47:20;;;;;;;12.17;6.60;;;;;;;-0.25;74.18;100666.41;5010137;28;20485;-58
2022/01/13 03:49:46;;;;;;;14.33;7.50;;;;;;;-0.32;75.80;100660.16;5011013;28;20052;-58
2022/01/13 03:52:23;;;;;;;13.97;7.43;;;;;;;-0.32;76.79;100645.06;5006605;28;20026;-59
2022/01/13 03:55:14;;;;;;;12.47;7.10;;;;;;;-0.35;77.71;100646.53;5008741;28;20113;-59
2022/01/13 03:58:18;;;;;;;15.90;8.40;;;;;;;-0.44;79.43;100667.03;5012377;28;20054;-60
2022/01/13 04:01:20;;;;;;;16.67;7.77;;;;;;;-0.42;81.90;100703.25;5008508;28;20053;-60
2022/01/13 04:03:46;;;;;;;15.40;7.87;;;;;;;-0.46;83.16;100683.69;5008142;28;20560;-58
2022/01/13 04:06:11;;;;;;;19.30;8.60;;;;;;;-0.46;84.60;100682.06;5011941;28;20117;-58
2022/01/13 04:08:37;;;;;;;15.27;8.43;;;;;;;-0.47;85.51;100687.88;5011623;28;20060;-59
2022/01/13 04:11:06;;;;;;;17.27;8.27;;;;;;;-0.43;86.45;100676.34;5006843;28;20037;-58
2022/01/13 04:16:27;;;;;;;11.77;6.40;;;;;;;-0.41;86.30;100682.31;5000087;28;20392;-58
2022/01/13 04:18:57;;;;;;;15.23;8.00;;;;;;;-0.43;86.63;100683.03;5010594;28;20133;-59
2022/01/13 04:21:23;;;;;;;14.30;7.43;;;;;;;-0.35;87.30;100676.78;5007999;28;20099;-61
2022/01/13 04:23:49;;;;;;;13.93;8.27;;;;;;;-0.30;87.51;100688.88;5011441;28;20041;-58
2022/01/13 04:26:19;;;;;;;14.67;8.33;;;;;;;-0.25;87.71;100686.56;5009197;28;20084;-59
2022/01/13 04:28:45;;;;;;;13.47;8.83;;;;;;;-0.28;88.01;100669.66;5009504;28;20486;-58
2022/01/13 04:31:11;;;;;;;13.70;7.40;;;;;;;-0.22;87.66;100654.00;5006338;28;20045;-58
2022/01/13 04:33:37;;;;;;;13.50;7.80;;;;;;;-0.25;87.27;100658.84;5011129;28;20031;-58
2022/01/13 04:36:05;;;;;;;13.97;7.50;;;;;;;-0.17;86.38;100657.66;5006756;28;20034;-59
2022/01/13 04:38:31;;;;;;;17.10;7.33;;;;;;;-0.16;85.23;100666.94;5006974;28;20038;-57
2022/01/13 04:40:59;;;;;;;15.80;7.63;;;;;;;-0.15;85.27;100667.03;5007816;28;20030;-60
2022/01/13 04:43:26;;;;;;;15.20;7.80;;;;;;;-0.10;84.64;100668.16;5008884;28;20095;-58
2022/01/13 04:45:52;;;;;;;11.60;7.33;;;;;;;-0.11;85.19;100675.63;5009280;28;20141;-57
2022/01/13 04:48:17;;;;;;;13.03;7.97;;;;;;;-0.16;84.67;100662.75;5007741;28;20122;-58
2022/01/13 04:50:44;;;;;;;15.63;7.60;;;;;;;-0.16;85.20;100677.00;5008703;28;20029;-60
2022/01/13 04:53:10;;;;;;;15.27;7.80;;;;;;;-0.18;84.81;100683.63;5009297;28;20464;-59
2022/01/13 04:55:37;;;;;;;14.13;7.10;;;;;;;-0.15;84.60;100678.75;5006951;28;20029;-60
2022/01/13 04:58:04;;;;;;;11.43;6.97;;;;;;;-0.17;84.81;100687.91;5011923;28;20172;-59
2022/01/13 05:00:31;;;;;;;13.63;6.97;;;;;;;-0.22;84.73;100702.75;5011814;28;20577;-58
2022/01/13 05:02:57;;;;;;;12.67;7.17;;;;;;;-0.15;84.84;100703.97;5014517;28;20040;-59
2022/01/13 05:05:24;;;;;;;15.30;8.30;;;;;;;-0.26;85.74;100715.09;5011389;28;20566;-58
2022/01/13 05:07:50;;;;;;;14.87;8.17;;;;;;;-0.31;86.02;100711.44;5013111;28;20119;-58
2022/01/13 05:10:15;;;;;;;14.47;7.43;;;;;;;-0.36;86.87;100708.66;5010551;28;20135;-60
2022/01/13 05:12:46;;;;;;;14.50;8.20;;;;;;;-0.40;87.14;100721.84;5011613;28;20030;-59
2022/01/13 05:15:18;;;;;;;17.77;7.43;;;;;;;-0.41;86.89;100724.28;5010989;28;20095;-60
2022/01/13 05:20:26;;;;;;;13.97;7.97;;;;;;;-0.55;88.21;100731.03;5014049;28;20337;-59
2022/01/13 05:22:52;;;;;;;10.07;6.50;;;;;;;-0.58;89.28;100721.66;5015659;28;20057;-58
2022/01/13 05:25:19;;;;;;;12.80;7.20;;;;;;;-0.60;89.31;100724.88;5010292;28;20033;-60
2022/01/13 05:27:48;;;;;;;11.97;7.10;;;;;;;-0.64;89.30;100723.84;5013577;28;20638;-59
2022/01/13 05:30:16;;;;;;;12.83;6.60;;;;;;;-0.72;90.42;100721.63;5013818;28;20132;-60
2022/01/13 05:32:42;;;;;;;13.47;6.20;;;;;;;-0.69;90.83;100729.38;5014495;28;20039;-59
2022/01/13 05:35:08;;;;;;;11.53;7.20;;;;;;;-0.81;91.27;100724.47;5010927;28;20037;-59
2022/01/13 05:37:33;;;;;;;12.57;7.37;;;;;;;-0.82;91.85;100712.66;5011515;28;20080;-58
2022/01/13 05:39:59;;;;;;;14.50;7.20;;;;;;;-0.81;92.99;100719.44;5014538;28;20048;-55
2022/01/13 05:42:24;;;;;;;17.20;7.53;;;;;;;-0.87;93.34;100705.59;5013193;28;20033;-58
2022/01/13 05:44:50;;;;;;;15.67;8.43;;;;;;;-0.84;93.26;100706.66;5013376;28;20048;-60
2022/01/13 05:47:16;;;;;;;12.70;7.03;;;;;;;-0.90;94.37;100708.81;5011980;28;20411;-60
2022/01/13 05:49:42;;;;;;;15.53;8.40;;;;;;;-0.74;96.71;100705.56;5013559;28;20914;-58
2022/01/13 05:52:09;;;;;;;16.23;6.83;;;;;;;-0.88;94.67;100698.81;5013310;28;20473;-57
2022/01/13 05:54:35;;;;;;;16.27;7.60;;;;;;;-0.89;95.12;100699.63;5010582;28;20040;-59
2022/01/13 05:57:01;;;;;;;17.93;8.57;;;;;;;-0.93;95.41;100706.09;5009477;28;20058;-59
2022/01/13 05:59:26;;;;;;;15.27;7.97;;;;;;;-0.98;95.53;100710.03;5013145;28;20030;-60
2022/01/13 06:01:52;;;;;;;17.70;10.00;;;;;;;-0.97;96.09;100706.69;5014149;28;20053;-60
2022/01/13 06:04:17;;;;;;;15.90;8.17;;;;;;;-1.10;96.25;100692.50;5009142;28;20025;-61
2022/01/13 06:06:43;;;;;;;16.40;8.73;;;;;;;-1.11;96.69;100695.84;5010062;28;20402;-60
2022/01/13 06:09:08;;;;;;;15.07;7.77;;;;;;;-1.01;98.09;100692.19;5013381;28;20033;-61
2022/01/13 06:11:39;;;;;;;16.30;8.23;;;;;;;-1.04;97.10;100687.84;5009510;28;20038;-60
2022/01/13 06:14:05;;;;;;;14.90;7.67;;;;;;;-1.13;96.82;100681.41;5009440;28;20316;-59
2022/01/13 06:16:30;;;;;;;17.40;10.37;;;;;;;-1.11;97.08;100684.88;5011084;28;20333;-60
2022/01/13 06:18:56;;;;;;;16.30;7.80;;;;;;;-1.15;97.20;100696.44;5011854;28;20326;-58
2022/01/13 06:21:21;;;;;;;14.90;8.17;;;;;;;-1.01;98.39;100692.19;5009519;28;20550;-59
2022/01/13 06:23:47;;;;;;;14.17;8.60;;;;;;;-1.04;96.79;100695.41;5011999;28;20366;-58
2022/01/13 06:26:12;;;;;;;12.73;7.57;;;;;;;-1.10;97.13;100699.19;5009067;28;20033;-59
2022/01/13 06:28:38;;;;;;;13.03;7.37;;;;;;;-1.13;97.56;100697.38;5011659;28;20030;-60
2022/01/13 06:31:03;;;;;;;15.03;8.37;;;;;;;-1.15;97.56;100705.63;5011805;28;20036;-59
2022/01/13 06:33:29;;;;;;;15.30;8.53;;;;;;;-1.11;97.48;100694.97;5010359;28;20372;-58
2022/01/13 06:35:55;;;;;;;17.00;8.40;;;;;;;-1.07;96.94;100712.84;5010684;28;20030;-61
2022/01/13 06:38:20;;;;;;;16.87;8.83;;;;;;;-1.09;98.80;100711.88;5016012;28;20064;-58
2022/01/13 06:40:47;;;;;;;17.70;8.77;;;;;;;-1.20;98.59;100715.41;5012478;28;20113;-57
2022/01/13 06:43:12;;;;;;;17.37;7.80;;;;;;;-1.25;99.35;100715.88;5008504;28;20099;-56
2022/01/13 06:45:38;;;;;;;19.07;9.80;;;;;;;-1.20;99.10;100719.56;5011330;28;20190;-55
2022/01/13 06:48:05;;;;;;;14.37;7.87;;;;;;;-1.16;99.13;100724.00;5011672;28;20035;-57
2022/01/13 06:50:31;;;;;;;15.73;8.10;;;;;;;-1.22;99.23;100721.97;5010156;28;20075;-55
2022/01/13 06:52:56;;;;;;;21.67;9.80;;;;;;;-1.20;99.23;100729.63;5008006;28;20034;-55
2022/01/13 06:55:22;;;;;;;17.90;9.93;;;;;;;-1.16;99.45;100732.41;5012179;28;20083;-56
2022/01/13 06:57:47;;;;;;;17.93;9.10;;;;;;;-1.19;99.63;100716.28;5012397;28;20535;-56
2022/01/13 07:00:13;;;;;;;14.70;8.67;;;;;;;-1.16;99.80;100719.84;5009909;28;20472;-55
2022/01/13 07:02:39;;;;;;;14.87;7.90;;;;;;;-1.18;100.00;100716.34;5007436;28;20030;-55
2022/01/13 07:05:05;;;;;;;14.53;8.30;;;;;;;-1.15;100.00;100724.09;5010324;28;20367;-55
2022/01/13 07:07:39;;;;;;;19.03;9.07;;;;;;;-1.07;100.00;100727.94;5009339;28;20083;-57
2022/01/13 07:10:06;;;;;;;20.42;8.57;;;;;;;-1.11;100.00;100737.75;5010912;28;20069;-57
2022/01/13 07:12:32;;;;;;;22.80;9.93;;;;;;;-1.12;100.00;100739.38;5007296;28;20052;-59
2022/01/13 07:14:57;;;;;;;17.43;9.70;;;;;;;-1.10;100.00;100731.91;5012760;28;20439;-59
2022/01/13 07:17:23;;;;;;;18.23;8.93;;;;;;;-1.00;100.00;100727.53;5010217;28;20087;-59
2022/01/13 07:19:51;;;;;;;16.33;8.53;;;;;;;-0.94;100.00;100722.00;5008138;28;20475;-60
2022/01/13 07:22:18;;;;;;;22.87;9.63;;;;;;;-1.01;100.00;100719.88;5009643;28;20609;-60
2022/01/13 07:24:44;;;;;;;16.67;7.47;;;;;;;-0.93;100.00;100727.13;5010233;28;20037;-60
2022/01/13 07:27:09;;;;;;;14.17;7.50;;;;;;;-0.86;100.00;100728.38;5009996;28;20041;-59
2022/01/13 07:29:34;;;;;;;17.87;9.33;;;;;;;-0.71;100.00;100730.91;5004790;28;20300;-59
2022/01/13 07:32:00;;;;;;;14.33;7.60;;;;;;;-0.71;99.79;100726.75;5008699;28;20357;-59
2022/01/13 07:34:26;;;;;;;14.90;8.03;;;;;;;-0.54;99.51;100732.78;5012019;28;20037;-58
2022/01/13 07:36:51;;;;;;;15.43;8.33;;;;;;;-0.44;98.93;100719.94;5010098;28;20064;-59
2022/01/13 07:39:16;;;;;;;15.17;8.33;;;;;;;-0.32;97.99;100727.34;5008704;28;20038;-59
2022/01/13 07:41:42;;;;;;;15.43;8.40;;;;;;;-0.22;97.52;100711.97;5010355;28;20041;-59
2022/01/13 07:44:08;;;;;;;13.47;7.60;;;;;;;-0.14;96.95;100701.53;5013958;28;20116;-61
2022/01/13 07:46:34;;;;;;;11.53;6.40;;;;;;;-0.06;96.11;100691.88;5008891;28;20455;-59
2022/01/13 07:49:00;;;;;;;12.70;7.03;;;;;;;0.00;95.47;100695.59;5007704;28;20872;-58
2022/01/13 07:51:26;;;;;;;12.37;6.77;;;;;;;0.07;95.74;100696.84;5011371;28;20065;-58
2022/01/13 07:53:52;;;;;;;14.43;7.43;;;;;;;0.11;95.37;100697.88;5011142;28;20030;-59
2022/01/13 07:56:17;;;;;;;10.00;5.87;;;;;;;0.27;93.98;100713.06;5010209;28;20096;-60
2022/01/13 07:58:44;;;;;;;11.53;6.20;;;;;;;0.27;93.54;100706.34;5007883;28;20142;-60
2022/01/13 08:01:09;;;;;;;12.20;6.50;;;;;;;0.33;93.67;100713.41;5009774;28;20077;-59
2022/01/13 08:03:35;;;;;;;11.40;5.73;;;;;;;0.42;92.20;100709.69;5015561;28;20052;-60
2022/01/13 08:06:01;;;;;;;12.33;6.37;;;;;;;0.55;91.83;100716.31;5007140;28;20069;-60
2022/01/13 08:08:27;;;;;;;12.43;6.87;;;;;;;0.62;90.88;100731.00;5006964;28;20041;-59
2022/01/13 08:10:52;;;;;;;13.10;6.53;;;;;;;0.72;90.17;100715.53;5009588;28;20095;-60
2022/01/13 08:13:18;;;;;;;9.17;5.10;;;;;;;0.83;89.48;100711.06;5013166;28;20546;-59
2022/01/13 08:15:43;;;;;;;8.43;4.63;;;;;;;1.03;88.54;100710.44;5008055;28;20260;-60
2022/01/13 08:20:53;;;;;;;11.83;5.83;;;;;;;1.20;85.68;100718.91;5011759;28;20067;-60
2022/01/13 08:23:18;;;;;;;11.77;5.40;;;;;;;1.26;85.25;100707.47;5010649;28;20472;-60
2022/01/13 08:25:44;;;;;;;8.43;5.97;;;;;;;1.35;84.21;100702.03;5008293;28;20418;-60
2022/01/13 08:28:10;;;;;;;10.80;4.63;;;;;;;1.36;83.84;100698.69;5010442;28;20049;-60
2022/01/13 08:30:37;;;;;;;7.77;4.47;;;;;;;1.39;83.52;100693.81;5011917;28;20396;-58
2022/01/13 08:33:02;;;;;;;9.93;4.83;;;;;;;1.51;82.85;100707.06;5014232;28;20180;-59
2022/01/13 08:35:28;;;;;;;7.93;5.30;;;;;;;1.51;83.09;100721.34;5008920;28;20458;-59
2022/01/13 08:37:53;;;;;;;5.83;3.57;;;;;;;1.50;82.79;100704.44;5009632;28;20476;-59
2022/01/13 08:40:19;;;;;;;8.10;5.07;;;;;;;1.54;81.83;100701.25;5014814;28;20030;-58
2022/01/13 08:42:44;;;;;;;7.70;4.77;;;;;;;1.55;81.81;100719.06;5016181;28;20084;-59
2022/01/13 08:45:12;;;;;;;8.57;4.53;;;;;;;1.60;80.35;100727.75;5011668;28;20499;-60
2022/01/13 08:47:38;;;;;;;10.50;4.53;;;;;;;1.66;80.78;100715.38;5013491;28;20529;-61
2022/01/13 08:50:07;;;;;;;7.33;4.37;;;;;;;1.72;79.52;100732.53;5014532;28;20029;-60
2022/01/13 08:52:33;;;;;;;7.87;4.63;;;;;;;1.78;78.59;100723.56;5013331;28;20298;-59
2022/01/13 08:54:59;;;;;;;7.50;4.50;;;;;;;1.83;78.30;100722.13;5011462;28;20340;-60
2022/01/13 08:57:25;;;;;;;8.33;4.63;;;;;;;1.88;78.07;100726.56;5014926;28;20038;-58
2022/01/13 08:59:51;;;;;;;9.80;5.53;;;;;;;1.89;77.47;100720.72;5014671;28;20033;-59
2022/01/13 09:02:16;;;;;;;8.90;5.13;;;;;;;2.03;77.58;100724.78;5014029;28;20041;-59
2022/01/13 09:04:42;;;;;;;10.50;5.70;;;;;;;2.09;76.32;100733.53;5008708;28;20030;-58
2022/01/13 09:07:07;;;;;;;8.30;4.33;;;;;;;2.13;76.18;100740.47;5019051;28;20088;-60
2022/01/13 09:09:34;;;;;;;9.37;4.90;;;;;;;2.29;75.16;100730.28;5010002;28;20042;-60
2022/01/13 09:12:00;;;;;;;10.73;5.50;;;;;;;2.44;74.68;100732.69;5010323;28;20045;-59
2022/01/13 09:14:28;;;;;;;9.10;4.37;;;;;;;2.48;73.14;100732.03;5013202;28;20026;-59
2022/01/13 09:16:53;;;;;;;8.53;4.50;;;;;;;2.65;72.83;100738.75;5011291;28;20041;-60
2022/01/13 09:19:19;;;;;;;6.50;3.90;;;;;;;2.77;72.79;100746.03;5010587;28;20076;-61
2022/01/13 09:21:46;;;;;;;9.10;4.30;;;;;;;3.01;71.41;100741.22;5011913;28;20284;-61
2022/01/13 09:24:21;;;;;;;9.37;3.23;;;;;;;3.04;71.08;100739.69;5012490;28;20120;-60
2022/01/13 09:26:47;;;;;;;5.30;3.20;;;;;;;3.13;70.26;100739.25;5013605;28;20065;-59
2022/01/13 09:29:14;;;;;;;4.10;3.10;;;;;;;3.25;69.18;100711.91;5013909;28;20077;-61
2022/01/13 09:31:41;;;;;;;5.13;3.23;;;;;;;3.34;69.45;100719.03;5016603;28;20088;-61
2022/01/13 09:34:08;;;;;;;4.97;3.13;;;;;;;3.41;68.52;100715.94;5017030;28;20033;-60
2022/01/13 09:36:35;;;;;;;2.87;2.40;;;;;;;3.52;68.17;100724.91;5014511;28;20038;-61
2022/01/13 09:39:02;;;;;;;4.70;2.87;;;;;;;3.62;66.84;100719.41;5014547;28;20083;-61
2022/01/13 09:41:30;;;;;;;3.07;2.67;;;;;;;3.78;66.57;100711.63;5014968;28;20569;-60
2022/01/13 09:43:57;;;;;;;4.20;2.37;;;;;;;3.75;65.54;100719.09;5014075;28;20072;-60
2022/01/13 09:46:26;;;;;;;4.47;2.60;;;;;;;3.81;66.21;100715.97;5014901;28;20030;-61
2022/01/13 09:48:52;;;;;;;4.43;2.67;;;;;;;4.00;65.81;100714.22;5012789;28;20042;-60
2022/01/13 09:51:17;;;;;;;5.63;2.73;;;;;;;4.05;66.17;100709.34;5014360;28;20083;-61
2022/01/13 09:53:43;;;;;;;1.70;1.60;;;;;;;4.33;64.49;100703.72;5013425;28;20041;-61
2022/01/13 09:56:10;;;;;;;2.57;1.73;;;;;;;4.40;63.86;100687.91;5016322;28;20586;-58
2022/01/13 09:58:36;;;;;;;2.97;1.80;;;;;;;4.55;63.37;100673.22;5015852;28;20427;-61
2022/01/13 10:01:02;;;;;;;2.97;2.23;;;;;;;4.62;63.15;100661.63;5015093;28;20052;-61
2022/01/13 10:03:29;;;;;;;2.67;2.43;;;;;;;4.69;62.35;100664.47;5014605;28;20561;-62
2022/01/13 10:06:00;;;;;;;2.50;1.80;;;;;;;4.72;62.05;100664.56;5014888;28;20108;-61
2022/01/13 10:08:41;;;;;;;3.53;2.40;;;;;;;4.87;61.66;100660.06;5014401;28;20157;-59
2022/01/13 10:11:32;;;;;;;3.50;1.90;;;;;;;5.06;60.48;100648.84;5016258;28;20041;-61
2022/01/13 10:17:02;;;;;;;5.67;3.00;;;;;;;5.47;59.21;100627.41;5013723;28;20373;-61
2022/01/13 10:19:44;;;;;;;2.70;2.17;;;;;;;5.53;58.67;100636.09;5018534;28;20481;-59
2022/01/13 10:22:15;;;;;;;2.83;2.50;;;;;;;5.55;57.84;100622.56;5020085;28;20042;-60
2022/01/13 10:24:43;;;;;;;2.50;1.60;;;;;;;5.39;58.37;100631.34;5049442;28;20033;-60
2022/01/13 10:27:12;;;;;;;2.70;1.40;;;;;;;5.36;58.70;100616.88;5012963;28;20049;-60
2022/01/13 10:29:42;;;;;;;1.80;1.30;;;;;;;5.38;58.79;100617.78;5016516;28;20038;-61
2022/01/13 10:32:10;;;;;;;1.70;1.60;;;;;;;5.38;58.53;100612.72;5017269;28;20060;-60
2022/01/13 10:34:39;;;;;;;2.90;1.80;;;;;;;5.34;58.96;100603.25;5016314;28;20025;-60
2022/01/13 10:37:30;;;;;;;1.40;1.23;;;;;;;5.46;58.74;100605.31;5012566;28;20044;-60
2022/01/13 10:40:09;;;;;;;2.40;2.20;;;;;;;5.69;58.11;100595.88;5022259;28;20548;-62
2022/01/13 10:45:20;;;;;;;5.63;1.50;;;;;;;5.96;57.66;100586.59;5015829;28;20388;-59
2022/01/13 10:48:04;;;;;;;2.53;1.53;;;;;;;6.04;56.76;100595.34;5012283;28;20096;-60
2022/01/13 10:50:39;;;;;;;1.53;1.40;;;;;;;6.01;56.62;100594.38;5016810;28;20034;-60
2022/01/13 10:53:18;;;;;;;1.73;1.25;;;;;;;6.02;56.42;100586.81;5013477;28;20117;-60
2022/01/13 10:56:11;;;;;;;1.13;1.03;;;;;;;5.86;56.43;100598.19;5013453;28;20196;-62
2022/01/13 10:58:48;;;;;;;1.43;1.33;;;;;;;5.90;56.26;100587.28;5016202;28;20053;-62
2022/01/13 11:01:14;;;;;;;1.87;1.40;;;;;;;5.88;56.40;100580.41;5015030;28;20036;-60
2022/01/13 11:03:41;;;;;;;1.07;1.07;;;;;;;6.02;56.37;100579.16;5014189;28;20044;-60
2022/01/13 11:06:09;;;;;;;1.97;1.30;;;;;;;6.08;55.71;100576.78;5014094;28;20045;-59
2022/01/13 11:08:43;;;;;;;3.60;1.50;;;;;;;5.99;56.47;100591.78;5015613;28;20104;-60
2022/01/13 11:11:21;;;;;;;1.57;1.40;;;;;;;6.19;55.83;100590.72;5015221;28;20026;-60
2022/01/13 11:14:07;;;;;;;1.87;1.67;;;;;;;6.20;55.49;100582.25;5013305;28;20452;-62
2022/01/13 11:16:33;;;;;;;1.40;1.10;;;;;;;6.47;54.61;100583.88;5013094;28;20104;-61
2022/01/13 11:18:59;;;;;;;1.43;1.17;;;;;;;6.47;54.65;100577.09;5016129;28;20025;-61
2022/01/13 11:21:27;;;;;;;1.50;1.40;;;;;;;6.34;54.08;100583.53;5012395;28;20035;-61
2022/01/13 11:23:54;;;;;;;3.23;1.33;;;;;;;6.12;54.67;100573.50;5013547;28;20057;-59
2022/01/13 11:26:21;;;;;;;5.07;1.40;;;;;;;5.95;54.97;100582.31;5015689;28;20032;-57
2022/01/13 11:28:48;;;;;;;1.80;1.10;;;;;;;5.91;55.25;100576.28;5016673;28;20535;-60
2022/01/13 11:31:14;;;;;;;2.40;1.43;;;;;;;5.73;55.61;100572.28;5013223;28;20029;-58
2022/01/13 11:33:39;;;;;;;2.93;1.90;;;;;;;5.65;55.38;100584.75;5014791;28;20048;-59
2022/01/13 11:36:08;;;;;;;2.07;1.30;;;;;;;5.49;56.24;100585.06;5015256;28;20424;-59
2022/01/13 11:38:33;;;;;;;2.07;1.60;;;;;;;5.54;56.49;100586.09;5014015;28;20140;-59
2022/01/13 11:41:09;;;;;;;1.20;0.97;;;;;;;5.45;56.12;100589.19;5010889;28;20032;-60
2022/01/13 11:43:36;;;;;;;1.85;1.00;;;;;;;5.50;56.63;100590.22;5014375;28;20124;-60
2022/01/13 11:46:11;;;;;;;2.27;1.60;;;;;;;5.61;56.63;100592.22;5017282;28;20304;-60
2022/01/13 11:48:41;;;;;;;1.08;1.00;;;;;;;5.62;56.13;100574.47;5009876;28;20034;-59
2022/01/13 11:51:17;;;;;;;1.43;1.13;;;;;;;5.79;55.76;100587.72;5010747;28;20105;-60
2022/01/13 11:54:23;;;;;;;1.60;0.90;;;;;;;5.83;55.48;100587.88;5012446;28;20040;-59